createdAt,value
2023-01-17T00:01:08.931Z,1.33
2023-01-17T00:04:30.712Z,1.40
2023-01-17T00:07:51.286Z,0.93
2023-01-17T00:10:52.867Z,0.90
2023-01-17T00:13:54.430Z,1.30
2023-01-17T00:16:55.925Z,1.23
2023-01-17T00:20:16.663Z,2.10
2023-01-17T00:23:43.370Z,1.23
2023-01-17T00:27:03.843Z,1.10
2023-01-17T00:30:06.157Z,1.23
2023-01-17T00:33:07.669Z,1.02
2023-01-17T00:36:10.495Z,1.38
2023-01-17T00:39:12.026Z,0.90
2023-01-17T00:42:13.502Z,1.17
2023-01-17T00:45:33.273Z,0.98
2023-01-17T00:48:53.689Z,1.20
2023-01-17T00:52:13.962Z,1.02
2023-01-17T00:55:33.802Z,1.15
2023-01-17T00:58:53.994Z,1.23
2023-01-17T01:02:13.951Z,1.25
2023-01-17T01:05:34.664Z,1.52
2023-01-17T01:08:54.998Z,1.15
2023-01-17T01:12:15.188Z,1.05
2023-01-17T01:15:35.662Z,0.90
2023-01-17T01:18:55.529Z,1.27
2023-01-17T01:22:15.791Z,1.10
2023-01-17T01:25:35.816Z,1.08
2023-01-17T01:28:55.603Z,1.27
2023-01-17T01:32:15.551Z,1.00
2023-01-17T01:35:17.284Z,1.30
2023-01-17T01:38:20.471Z,0.95
2023-01-17T01:41:22.445Z,1.70
2023-01-17T01:44:44.679Z,1.05
2023-01-17T01:47:47.113Z,1.10
2023-01-17T01:50:50.617Z,1.00
2023-01-17T01:53:59.640Z,1.20
2023-01-17T01:57:04.958Z,1.00
2023-01-17T02:00:16.480Z,0.73
2023-01-17T02:03:25.992Z,1.27
2023-01-17T02:06:32.276Z,1.10
2023-01-17T02:09:34.521Z,1.00
2023-01-17T02:12:36.286Z,1.15
2023-01-17T02:15:57.115Z,0.95
2023-01-17T02:19:27.844Z,0.98
2023-01-17T02:22:39.753Z,1.00
2023-01-17T02:26:18.753Z,0.95
2023-01-17T02:29:26.065Z,1.23
2023-01-17T02:32:30.259Z,1.40
2023-01-17T02:38:58.482Z,0.88
2023-01-17T02:42:09.507Z,1.42
2023-01-17T02:45:19.448Z,1.13
2023-01-17T02:48:24.630Z,1.00
2023-01-17T02:51:56.175Z,1.23
2023-01-17T02:55:07.904Z,1.30
2023-01-17T02:58:41.884Z,1.60
2023-01-17T03:01:54.040Z,0.90
2023-01-17T03:05:02.833Z,1.13
2023-01-17T03:08:05.506Z,1.50
2023-01-17T03:11:09.642Z,1.35
2023-01-17T03:17:12.772Z,1.25
2023-01-17T03:20:14.408Z,1.33
2023-01-17T03:23:16.003Z,1.40
2023-01-17T03:26:17.824Z,1.70
2023-01-17T03:29:19.413Z,1.70
2023-01-17T03:32:20.958Z,1.50
2023-01-17T03:35:22.515Z,1.50
2023-01-17T03:38:28.841Z,1.60
2023-01-17T03:41:30.355Z,1.40
2023-01-17T03:44:31.972Z,1.40
2023-01-17T03:47:35.178Z,4.18
2023-01-17T03:50:37.000Z,2.30
2023-01-17T03:53:38.692Z,1.35
2023-01-17T03:56:40.525Z,1.33
2023-01-17T03:59:42.152Z,1.38
2023-01-17T04:02:43.802Z,1.67
2023-01-17T04:05:45.432Z,1.80
2023-01-17T04:08:47.092Z,1.52
2023-01-17T04:11:50.902Z,1.80
2023-01-17T04:14:52.682Z,1.45
2023-01-17T04:17:54.354Z,2.80
2023-01-17T04:20:56.023Z,1.80
2023-01-17T04:23:57.566Z,1.02
2023-01-17T04:26:59.669Z,1.27
2023-01-17T04:30:01.269Z,1.20
2023-01-17T04:33:03.320Z,1.23
2023-01-17T04:36:05.358Z,1.77
2023-01-17T04:39:07.406Z,1.30
2023-01-17T04:42:08.994Z,1.60
2023-01-17T04:45:11.384Z,1.48
2023-01-17T04:48:13.123Z,1.33
2023-01-17T04:51:14.738Z,1.67
2023-01-17T04:54:16.450Z,1.95
2023-01-17T04:57:18.803Z,1.95
2023-01-17T05:00:22.712Z,1.80
2023-01-17T05:03:25.513Z,1.77
2023-01-17T05:06:27.200Z,1.40
2023-01-17T05:09:28.729Z,2.30
2023-01-17T05:12:30.628Z,1.48
2023-01-17T05:15:32.394Z,1.75
2023-01-17T05:18:34.004Z,1.30
2023-01-17T05:21:35.550Z,2.15
2023-01-17T05:24:37.408Z,2.28
2023-01-17T05:27:38.928Z,1.52
2023-01-17T05:30:41.070Z,2.28
2023-01-17T05:33:42.765Z,2.75
2023-01-17T05:36:44.274Z,3.03
2023-01-17T05:39:45.780Z,3.35
2023-01-17T05:42:49.394Z,2.58
2023-01-17T05:45:50.967Z,2.90
2023-01-17T05:48:52.490Z,1.90
2023-01-17T05:51:54.998Z,2.08
2023-01-17T05:54:56.723Z,2.50
2023-01-17T05:57:58.920Z,2.53
2023-01-17T06:01:01.273Z,3.20
2023-01-17T06:04:02.794Z,2.70
2023-01-17T06:07:04.387Z,2.92
2023-01-17T06:10:06.611Z,3.35
2023-01-17T06:13:14.325Z,3.70
2023-01-17T06:16:16.066Z,2.70
2023-01-17T06:19:17.637Z,2.95
2023-01-17T06:22:19.184Z,2.17
2023-01-17T06:25:20.841Z,2.88
2023-01-17T06:28:23.495Z,2.85
2023-01-17T06:31:25.106Z,3.55
2023-01-17T06:34:26.877Z,3.03
2023-01-17T06:37:28.508Z,3.90
2023-01-17T06:40:30.730Z,3.88
2023-01-17T06:43:33.759Z,4.90
2023-01-17T06:46:35.562Z,5.18
2023-01-17T06:49:37.245Z,3.78
2023-01-17T06:52:39.149Z,4.03
2023-01-17T06:55:41.369Z,3.60
2023-01-17T06:58:42.933Z,4.05
2023-01-17T07:01:44.552Z,3.60
2023-01-17T07:04:46.208Z,4.38
2023-01-17T07:07:48.021Z,4.75
2023-01-17T07:10:49.645Z,4.22
2023-01-17T07:13:51.178Z,6.15
2023-01-17T07:16:52.685Z,5.45
2023-01-17T07:19:54.425Z,4.57
2023-01-17T07:22:56.294Z,4.85
2023-01-17T07:26:00.099Z,3.83
2023-01-17T07:29:01.612Z,3.85
2023-01-17T07:32:03.412Z,4.20
2023-01-17T07:35:06.198Z,4.93
2023-01-17T07:38:13.015Z,3.17
2023-01-17T07:41:14.661Z,3.63
2023-01-17T07:44:16.363Z,3.38
2023-01-17T07:47:17.960Z,3.20
2023-01-17T07:50:19.586Z,3.10
2023-01-17T07:53:28.571Z,4.43
2023-01-17T07:56:30.143Z,4.80
2023-01-17T07:59:33.752Z,3.97
2023-01-17T08:02:35.273Z,3.65
2023-01-17T08:05:37.588Z,3.10
2023-01-17T08:08:39.819Z,3.50
2023-01-17T08:11:41.303Z,2.75
2023-01-17T08:14:42.794Z,2.85
2023-01-17T08:17:48.990Z,2.75
2023-01-17T08:20:50.578Z,2.72
2023-01-17T08:23:52.562Z,3.10
2023-01-17T08:26:57.179Z,3.78
2023-01-17T08:29:59.265Z,3.63
2023-01-17T08:33:01.065Z,3.83
2023-01-17T08:36:02.722Z,4.03
2023-01-17T08:39:04.268Z,3.90
2023-01-17T08:42:06.081Z,2.95
2023-01-17T08:45:10.237Z,2.60
2023-01-17T08:51:13.908Z,2.85
2023-01-17T08:54:15.774Z,2.80
2023-01-17T08:57:17.293Z,2.95
2023-01-17T09:00:19.315Z,3.17
2023-01-17T09:03:21.432Z,2.75
2023-01-17T09:06:23.016Z,2.42
2023-01-17T09:09:24.862Z,2.30
2023-01-17T09:12:31.159Z,2.40
2023-01-17T09:15:32.913Z,2.53
2023-01-17T09:18:35.803Z,2.65
2023-01-17T09:21:37.619Z,4.05
2023-01-17T09:24:39.725Z,2.95
2023-01-17T09:27:45.469Z,2.42
2023-01-17T09:30:47.370Z,2.65
2023-01-17T09:33:50.445Z,2.35
2023-01-17T09:36:52.043Z,4.22
2023-01-17T09:39:53.860Z,2.90
2023-01-17T09:43:01.427Z,3.35
2023-01-17T09:46:03.988Z,2.40
2023-01-17T09:49:31.812Z,2.42
2023-01-17T09:52:33.701Z,3.58
2023-01-17T09:55:41.601Z,2.95
2023-01-17T09:58:51.946Z,3.38
2023-01-17T10:02:02.685Z,2.70
2023-01-17T10:05:37.442Z,3.45
2023-01-17T10:08:53.147Z,1.88
2023-01-17T10:12:00.685Z,2.45
2023-01-17T10:15:17.252Z,2.20
2023-01-17T10:18:46.449Z,1.80
2023-01-17T10:21:59.050Z,2.20
2023-01-17T10:25:15.947Z,2.28
2023-01-17T10:28:40.452Z,1.65
2023-01-17T10:31:51.170Z,2.75
2023-01-17T10:34:53.745Z,2.72
2023-01-17T10:37:58.423Z,2.38
2023-01-17T10:41:02.597Z,2.65
2023-01-17T10:47:12.302Z,2.85
2023-01-17T10:50:14.193Z,3.05
2023-01-17T10:53:33.384Z,3.70
2023-01-17T10:56:36.563Z,3.17
2023-01-17T10:59:38.170Z,3.50
2023-01-17T11:02:47.568Z,2.38
2023-01-17T11:06:22.842Z,1.15
2023-01-17T11:09:38.138Z,2.00
2023-01-17T11:12:47.088Z,2.10
2023-01-17T11:15:51.963Z,1.50
2023-01-17T11:19:13.390Z,1.63
2023-01-17T11:22:16.229Z,1.63
2023-01-17T11:25:24.211Z,2.08
2023-01-17T11:28:36.592Z,1.42
2023-01-17T11:31:38.182Z,1.20
2023-01-17T11:34:39.744Z,2.10
2023-01-17T11:37:58.858Z,1.85
2023-01-17T11:41:21.238Z,2.20
2023-01-17T11:44:30.321Z,3.08
2023-01-17T11:47:32.200Z,2.42
2023-01-17T11:50:37.414Z,2.45
2023-01-17T11:53:44.278Z,2.47
2023-01-17T11:56:46.426Z,1.63
2023-01-17T11:59:48.825Z,1.55
2023-01-17T12:03:11.173Z,2.38
2023-01-17T12:06:26.357Z,2.05
2023-01-17T12:10:12.786Z,2.13
2023-01-17T12:13:48.615Z,2.30
2023-01-17T12:17:22.711Z,1.98
2023-01-17T12:20:41.432Z,2.50
2023-01-17T12:24:01.005Z,2.38
2023-01-17T12:27:13.194Z,2.25
2023-01-17T12:30:52.185Z,2.05
2023-01-17T12:34:00.854Z,2.72
2023-01-17T12:37:29.571Z,2.22
2023-01-17T12:40:39.957Z,1.92
2023-01-17T12:43:43.007Z,2.65
2023-01-17T12:46:56.973Z,2.08
2023-01-17T12:50:23.180Z,2.13
2023-01-17T12:53:32.935Z,2.60
2023-01-17T12:56:46.509Z,2.20
2023-01-17T13:00:12.590Z,2.75
2023-01-17T13:03:43.291Z,1.65
2023-01-17T13:06:51.830Z,1.67
2023-01-17T13:10:00.444Z,2.55
2023-01-17T13:13:16.583Z,2.63
2023-01-17T13:16:26.041Z,2.47
2023-01-17T13:19:36.364Z,1.98
2023-01-17T13:22:51.817Z,1.95
2023-01-17T13:25:59.383Z,2.10
2023-01-17T13:29:22.274Z,1.75
2023-01-17T13:33:01.615Z,2.63
2023-01-17T13:36:21.328Z,2.13
2023-01-17T13:39:46.171Z,2.30
2023-01-17T13:43:01.481Z,2.40
2023-01-17T13:46:04.027Z,2.10
2023-01-17T13:49:23.301Z,2.30
2023-01-17T13:52:24.796Z,2.50
2023-01-17T13:56:14.404Z,2.28
2023-01-17T13:59:42.276Z,2.83
2023-01-17T14:02:44.695Z,3.17
2023-01-17T14:05:49.249Z,2.42
2023-01-17T14:08:50.861Z,4.28
2023-01-17T14:11:57.578Z,2.85
2023-01-17T14:15:01.006Z,2.00
2023-01-17T14:18:04.592Z,1.97
2023-01-17T14:21:11.276Z,2.65
2023-01-17T14:24:18.292Z,2.55
2023-01-17T14:27:24.360Z,3.75
2023-01-17T14:30:32.045Z,2.30
2023-01-17T14:33:38.573Z,3.50
2023-01-17T14:36:40.087Z,3.10
2023-01-17T14:39:46.877Z,2.75
2023-01-17T14:42:57.853Z,3.97
2023-01-17T14:46:04.311Z,2.67
2023-01-17T14:49:20.243Z,2.08
2023-01-17T14:52:23.485Z,2.55
2023-01-17T14:55:27.654Z,2.55
2023-01-17T14:58:32.011Z,2.67
2023-01-17T15:01:39.990Z,2.75
2023-01-17T15:04:42.693Z,2.70
2023-01-17T15:07:46.945Z,3.00
2023-01-17T15:11:03.055Z,3.00
2023-01-17T15:14:06.220Z,2.33
2023-01-17T15:17:25.782Z,2.92
2023-01-17T15:20:27.653Z,2.97
2023-01-17T15:23:34.479Z,2.75
2023-01-17T15:26:45.995Z,3.22
2023-01-17T15:29:48.200Z,3.03
2023-01-17T15:32:51.244Z,2.85
2023-01-17T15:36:04.542Z,3.05
2023-01-17T15:39:18.785Z,2.95
2023-01-17T15:42:26.051Z,2.80
2023-01-17T15:45:32.382Z,2.80
2023-01-17T15:48:40.439Z,2.50
2023-01-17T15:51:56.615Z,2.75
2023-01-17T15:55:10.921Z,2.50
2023-01-17T15:58:25.544Z,3.45
2023-01-17T16:01:28.408Z,3.47
2023-01-17T16:04:35.419Z,2.85
2023-01-17T16:07:36.985Z,4.50
2023-01-17T16:10:39.337Z,5.07
2023-01-17T16:13:43.229Z,3.20
2023-01-17T16:16:54.261Z,3.38
2023-01-17T16:19:56.044Z,3.97
2023-01-17T16:22:59.007Z,3.28
2023-01-17T16:29:03.333Z,3.70
2023-01-17T16:32:08.646Z,4.15
2023-01-17T16:35:19.147Z,4.97
2023-01-17T16:38:20.762Z,4.30
2023-01-17T16:41:22.414Z,4.47
2023-01-17T16:44:23.963Z,4.80
2023-01-17T16:47:25.582Z,5.55
2023-01-17T16:50:27.130Z,5.07
2023-01-17T16:53:28.677Z,4.97
2023-01-17T16:56:30.492Z,5.18
2023-01-17T16:59:42.538Z,5.28
2023-01-17T17:02:52.638Z,4.90
2023-01-17T17:05:56.838Z,7.20
2023-01-17T17:12:04.965Z,6.97
2023-01-17T17:15:07.295Z,7.55
2023-01-17T17:18:13.940Z,8.13
2023-01-17T17:21:15.565Z,7.35
2023-01-17T17:24:17.480Z,8.00
2023-01-17T17:27:19.184Z,7.55
2023-01-17T17:30:20.704Z,7.82
2023-01-17T17:33:22.233Z,7.45
2023-01-17T17:36:23.780Z,7.20
2023-01-17T17:39:25.253Z,7.45
2023-01-17T17:42:26.801Z,9.27
2023-01-17T17:45:28.337Z,7.85
2023-01-17T17:48:30.043Z,10.30
2023-01-17T17:51:35.005Z,10.13
2023-01-17T17:54:36.854Z,9.93
2023-01-17T17:57:38.641Z,7.85
2023-01-17T18:00:40.238Z,8.50
2023-01-17T18:03:41.834Z,7.78
2023-01-17T18:06:44.048Z,7.80
2023-01-17T18:09:45.663Z,7.78
2023-01-17T18:12:47.193Z,7.13
2023-01-17T18:15:48.671Z,6.10
2023-01-17T18:18:53.000Z,6.78
2023-01-17T18:21:54.726Z,6.80
2023-01-17T18:24:56.619Z,6.85
2023-01-17T18:27:58.189Z,6.18
2023-01-17T18:31:05.213Z,6.82
2023-01-17T18:34:29.212Z,7.32
2023-01-17T18:37:30.917Z,6.90
2023-01-17T18:40:34.784Z,8.00
2023-01-17T18:43:36.405Z,9.77
2023-01-17T18:46:38.922Z,8.52
2023-01-17T18:49:41.295Z,9.63
2023-01-17T18:52:43.032Z,11.13
2023-01-17T18:55:52.561Z,10.85
2023-01-17T18:58:55.609Z,11.40
2023-01-17T19:01:59.529Z,12.43
2023-01-17T19:05:05.484Z,11.98
2023-01-17T19:08:07.045Z,14.07
2023-01-17T19:11:09.396Z,11.13
2023-01-17T19:14:12.440Z,10.38
2023-01-17T19:17:14.145Z,9.00
2023-01-17T19:20:15.950Z,10.10
2023-01-17T19:23:17.563Z,9.48
2023-01-17T19:26:23.961Z,9.15
2023-01-17T19:29:26.800Z,8.75
2023-01-17T19:32:28.386Z,9.48
2023-01-17T19:35:30.069Z,6.70
2023-01-17T19:38:33.673Z,6.15
2023-01-17T19:41:38.097Z,6.82
2023-01-17T19:44:39.753Z,7.68
2023-01-17T19:47:41.365Z,6.10
2023-01-17T19:50:42.919Z,5.68
2023-01-17T19:53:44.704Z,5.55
2023-01-17T19:56:46.252Z,6.95
2023-01-17T19:59:48.468Z,4.50
2023-01-17T20:02:50.028Z,3.45
2023-01-17T20:05:57.700Z,3.00
2023-01-17T20:08:59.310Z,4.72
2023-01-17T20:12:01.040Z,3.10
2023-01-17T20:15:02.612Z,2.65
2023-01-17T20:18:04.243Z,2.45
2023-01-17T20:21:12.327Z,2.70
2023-01-17T20:24:14.320Z,8.65
2023-01-17T20:27:17.495Z,4.78
2023-01-17T20:30:20.748Z,2.53
2023-01-17T20:33:23.284Z,2.95
2023-01-17T20:36:29.009Z,1.60
2023-01-17T20:39:30.512Z,1.58
2023-01-17T20:42:36.206Z,1.60
2023-01-17T20:45:38.022Z,1.80
2023-01-17T20:48:47.447Z,1.60
2023-01-17T20:51:49.758Z,1.83
2023-01-17T20:54:54.392Z,1.50
2023-01-17T20:57:57.463Z,1.00
2023-01-17T21:00:59.265Z,1.23
2023-01-17T21:04:00.922Z,1.23
2023-01-17T21:07:02.428Z,0.90
2023-01-17T21:10:04.328Z,1.25
2023-01-17T21:13:05.881Z,1.20
2023-01-17T21:16:09.348Z,1.10
2023-01-17T21:19:14.270Z,1.10
2023-01-17T21:22:16.916Z,1.27
2023-01-17T21:25:18.590Z,1.73
2023-01-17T21:28:20.409Z,0.93
2023-01-17T21:31:30.408Z,0.90
2023-01-17T21:34:33.495Z,1.17
2023-01-17T21:37:35.123Z,0.73
2023-01-17T21:40:36.682Z,0.57
2023-01-17T21:43:39.698Z,0.80
2023-01-17T21:46:41.871Z,0.90
2023-01-17T21:49:43.494Z,0.80
2023-01-17T21:52:47.230Z,0.73
2023-01-17T21:56:07.178Z,0.85
2023-01-17T21:59:08.789Z,0.95
2023-01-17T22:02:10.679Z,0.95
2023-01-17T22:05:13.501Z,0.82
2023-01-17T22:08:15.328Z,1.02
2023-01-17T22:11:19.913Z,0.90
2023-01-17T22:14:21.555Z,0.80
2023-01-17T22:17:23.130Z,0.90
2023-01-17T22:20:24.902Z,0.73
2023-01-17T22:23:26.866Z,1.08
2023-01-17T22:26:30.760Z,0.80
2023-01-17T22:29:34.027Z,0.80
2023-01-17T22:32:35.524Z,0.77
2023-01-17T22:35:37.099Z,1.02
2023-01-17T22:38:38.693Z,0.90
2023-01-17T22:41:40.269Z,0.90
2023-01-17T22:44:41.772Z,1.08
2023-01-17T22:47:43.481Z,1.10
2023-01-17T22:50:45.664Z,0.90
2023-01-17T22:53:52.430Z,0.93
2023-01-17T22:56:54.181Z,1.13
2023-01-17T22:59:55.711Z,0.93
2023-01-17T23:02:57.647Z,0.90
2023-01-17T23:06:15.183Z,0.85
2023-01-17T23:09:17.491Z,1.23
2023-01-17T23:12:19.092Z,0.85
2023-01-17T23:15:39.233Z,1.20
2023-01-17T23:18:59.279Z,1.20
2023-01-17T23:22:21.299Z,1.10
2023-01-17T23:25:22.969Z,1.27
2023-01-17T23:28:24.518Z,1.02
2023-01-17T23:31:26.084Z,1.15
2023-01-17T23:34:27.650Z,1.17
2023-01-17T23:37:48.883Z,1.13
2023-01-17T23:41:09.551Z,1.50
2023-01-17T23:44:11.105Z,1.13
2023-01-17T23:47:12.643Z,0.80
2023-01-17T23:50:14.310Z,0.80
2023-01-17T23:53:22.485Z,1.10
2023-01-17T23:56:24.844Z,0.95
2023-01-17T23:59:26.357Z,1.15
